Saddle River, New Jersey
Current Conditions -  °F | °C
As of 3:51 PM on Sunday 21 Dec 2014 (Local Time) from KTEB Reporting Station
Overcast Overcast  
Wind Chill: -1°   Ceiling: 2200
Heat Index:   Visibility: 10mi
Dew Point: -3°   Wind: 7mph
Humidity: 67%   Direction: 330°NNW
Pressure: 30.29"   Gusts: NA
Location:  41.03°N, 74.1°W
Report Text: KTEB 212051Z 33006KT 10SM BKN022 OVC034 02/M03 A3029 RMK AO2 SLP258 T00221033 53004
Loading
Personal Weather Stations






























Interactive Weather Map New forecast layout! Learn more

10-Day Weather Forecast

Advertisements
Track Severe Weather on mobile